sensor_id;sensor_type;location;lat;lon;timestamp;temperature;humidity
4813;DHT22;2420;51.202;8.698;2023-07-13T00:01:28;16.80;1.00
4813;DHT22;2420;51.202;8.698;2023-07-13T00:03:54;16.80;1.00
4813;DHT22;2420;51.202;8.698;2023-07-13T00:06:20;16.90;1.00
4813;DHT22;2420;51.202;8.698;2023-07-13T00:08:46;16.80;1.00
4813;DHT22;2420;51.202;8.698;2023-07-13T00:11:13;16.70;1.00
4813;DHT22;2420;51.202;8.698;2023-07-13T00:13:40;16.70;1.00
4813;DHT22;2420;51.202;8.698;2023-07-13T00:16:07;16.50;1.00
4813;DHT22;2420;51.202;8.698;2023-07-13T00:18:32;16.30;1.00
4813;DHT22;2420;51.202;8.698;2023-07-13T00:20:58;16.30;1.00
4813;DHT22;2420;51.202;8.698;2023-07-13T00:23:39;16.30;1.00
4813;DHT22;2420;51.202;8.698;2023-07-13T00:26:06;16.30;1.00
4813;DHT22;2420;51.202;8.698;2023-07-13T00:28:32;16.20;1.00
4813;DHT22;2420;51.202;8.698;2023-07-13T00:30:58;16.20;1.00
4813;DHT22;2420;51.202;8.698;2023-07-13T00:33:24;16.30;1.00
4813;DHT22;2420;51.202;8.698;2023-07-13T00:35:50;16.20;1.00
4813;DHT22;2420;51.202;8.698;2023-07-13T00:38:15;16.20;1.00
4813;DHT22;2420;51.202;8.698;2023-07-13T00:40:41;16.40;1.00
4813;DHT22;2420;51.202;8.698;2023-07-13T00:43:17;16.50;1.00
4813;DHT22;2420;51.202;8.698;2023-07-13T00:48:10;16.50;1.00
4813;DHT22;2420;51.202;8.698;2023-07-13T00:50:36;16.40;1.00
4813;DHT22;2420;51.202;8.698;2023-07-13T00:53:02;16.40;1.00
4813;DHT22;2420;51.202;8.698;2023-07-13T00:55:28;16.30;1.00
4813;DHT22;2420;51.202;8.698;2023-07-13T00:57:54;16.10;1.00
4813;DHT22;2420;51.202;8.698;2023-07-13T01:00:23;16.10;1.00
4813;DHT22;2420;51.202;8.698;2023-07-13T01:02:50;16.10;1.00
4813;DHT22;2420;51.202;8.698;2023-07-13T01:05:19;16.10;1.00
4813;DHT22;2420;51.202;8.698;2023-07-13T01:07:45;16.00;1.00
4813;DHT22;2420;51.202;8.698;2023-07-13T01:10:12;16.00;1.00
4813;DHT22;2420;51.202;8.698;2023-07-13T01:12:38;16.00;1.00
4813;DHT22;2420;51.202;8.698;2023-07-13T01:15:04;15.90;1.00
4813;DHT22;2420;51.202;8.698;2023-07-13T01:17:31;16.00;1.00
4813;DHT22;2420;51.202;8.698;2023-07-13T01:19:58;16.10;1.00
4813;DHT22;2420;51.202;8.698;2023-07-13T01:22:24;16.20;1.00
4813;DHT22;2420;51.202;8.698;2023-07-13T01:24:52;16.20;1.00
4813;DHT22;2420;51.202;8.698;2023-07-13T01:27:21;16.20;1.00
4813;DHT22;2420;51.202;8.698;2023-07-13T01:29:48;16.10;1.00
4813;DHT22;2420;51.202;8.698;2023-07-13T01:32:23;16.10;1.00
4813;DHT22;2420;51.202;8.698;2023-07-13T01:34:53;15.90;1.00
4813;DHT22;2420;51.202;8.698;2023-07-13T01:37:23;15.90;1.00
4813;DHT22;2420;51.202;8.698;2023-07-13T01:39:49;15.80;1.00
4813;DHT22;2420;51.202;8.698;2023-07-13T01:42:15;15.70;1.00
4813;DHT22;2420;51.202;8.698;2023-07-13T01:44:40;15.60;1.00
4813;DHT22;2420;51.202;8.698;2023-07-13T01:47:06;15.70;1.00
4813;DHT22;2420;51.202;8.698;2023-07-13T01:49:32;15.60;1.00
4813;DHT22;2420;51.202;8.698;2023-07-13T01:51:57;15.70;1.00
4813;DHT22;2420;51.202;8.698;2023-07-13T01:54:23;15.70;1.00
4813;DHT22;2420;51.202;8.698;2023-07-13T01:56:48;15.70;1.00
4813;DHT22;2420;51.202;8.698;2023-07-13T01:59:14;15.70;1.00
4813;DHT22;2420;51.202;8.698;2023-07-13T02:01:40;15.80;1.00
4813;DHT22;2420;51.202;8.698;2023-07-13T02:04:05;15.80;1.00
4813;DHT22;2420;51.202;8.698;2023-07-13T02:06:31;15.80;1.00
4813;DHT22;2420;51.202;8.698;2023-07-13T02:08:57;15.60;1.00
4813;DHT22;2420;51.202;8.698;2023-07-13T02:11:23;15.60;1.00
4813;DHT22;2420;51.202;8.698;2023-07-13T02:13:50;15.60;1.00
4813;DHT22;2420;51.202;8.698;2023-07-13T02:16:15;15.50;1.00
4813;DHT22;2420;51.202;8.698;2023-07-13T02:18:41;15.50;1.00
4813;DHT22;2420;51.202;8.698;2023-07-13T02:21:06;15.40;1.00
4813;DHT22;2420;51.202;8.698;2023-07-13T02:23:32;15.50;1.00
4813;DHT22;2420;51.202;8.698;2023-07-13T02:25:59;15.40;1.00
4813;DHT22;2420;51.202;8.698;2023-07-13T02:28:24;15.40;1.00
4813;DHT22;2420;51.202;8.698;2023-07-13T02:30:50;15.30;1.00
4813;DHT22;2420;51.202;8.698;2023-07-13T02:33:16;15.30;1.00
4813;DHT22;2420;51.202;8.698;2023-07-13T02:35:41;15.00;1.00
4813;DHT22;2420;51.202;8.698;2023-07-13T02:38:07;14.90;1.00
4813;DHT22;2420;51.202;8.698;2023-07-13T02:40:34;14.80;1.00
4813;DHT22;2420;51.202;8.698;2023-07-13T02:43:01;14.80;1.00
4813;DHT22;2420;51.202;8.698;2023-07-13T02:45:26;14.90;1.00
4813;DHT22;2420;51.202;8.698;2023-07-13T02:47:52;14.70;1.00
4813;DHT22;2420;51.202;8.698;2023-07-13T02:50:18;14.60;1.00
4813;DHT22;2420;51.202;8.698;2023-07-13T02:52:43;14.50;1.00
4813;DHT22;2420;51.202;8.698;2023-07-13T02:55:09;14.40;1.00
4813;DHT22;2420;51.202;8.698;2023-07-13T02:57:34;14.30;1.00
4813;DHT22;2420;51.202;8.698;2023-07-13T03:00:01;14.40;1.00
4813;DHT22;2420;51.202;8.698;2023-07-13T03:02:30;14.40;1.00
4813;DHT22;2420;51.202;8.698;2023-07-13T03:04:57;14.50;1.00
4813;DHT22;2420;51.202;8.698;2023-07-13T03:07:23;14.50;1.00
4813;DHT22;2420;51.202;8.698;2023-07-13T03:09:48;14.60;1.00
4813;DHT22;2420;51.202;8.698;2023-07-13T03:12:14;14.70;1.00
4813;DHT22;2420;51.202;8.698;2023-07-13T03:14:39;14.70;1.00
4813;DHT22;2420;51.202;8.698;2023-07-13T03:17:05;14.60;1.00
4813;DHT22;2420;51.202;8.698;2023-07-13T03:19:31;14.50;1.00
4813;DHT22;2420;51.202;8.698;2023-07-13T03:21:56;14.60;1.00
4813;DHT22;2420;51.202;8.698;2023-07-13T03:24:22;14.60;1.00
4813;DHT22;2420;51.202;8.698;2023-07-13T03:26:51;14.60;1.00
4813;DHT22;2420;51.202;8.698;2023-07-13T03:29:16;14.50;1.00
4813;DHT22;2420;51.202;8.698;2023-07-13T03:31:42;14.40;1.00
4813;DHT22;2420;51.202;8.698;2023-07-13T03:34:07;14.50;1.00
4813;DHT22;2420;51.202;8.698;2023-07-13T03:36:33;14.30;1.00
4813;DHT22;2420;51.202;8.698;2023-07-13T03:39:00;14.20;1.00
4813;DHT22;2420;51.202;8.698;2023-07-13T03:41:27;14.20;1.00
4813;DHT22;2420;51.202;8.698;2023-07-13T03:43:52;14.10;1.00
4813;DHT22;2420;51.202;8.698;2023-07-13T03:46:18;14.10;1.00
4813;DHT22;2420;51.202;8.698;2023-07-13T03:48:45;14.00;1.00
4813;DHT22;2420;51.202;8.698;2023-07-13T03:51:13;14.10;1.00
4813;DHT22;2420;51.202;8.698;2023-07-13T03:53:41;14.00;1.00
4813;DHT22;2420;51.202;8.698;2023-07-13T03:56:06;14.00;1.00
4813;DHT22;2420;51.202;8.698;2023-07-13T03:58:34;13.90;1.00
4813;DHT22;2420;51.202;8.698;2023-07-13T04:01:01;13.90;1.00
4813;DHT22;2420;51.202;8.698;2023-07-13T04:03:28;13.90;1.00
4813;DHT22;2420;51.202;8.698;2023-07-13T04:05:57;13.90;1.00
4813;DHT22;2420;51.202;8.698;2023-07-13T04:08:25;13.90;1.00
4813;DHT22;2420;51.202;8.698;2023-07-13T04:10:51;13.90;1.00
4813;DHT22;2420;51.202;8.698;2023-07-13T04:13:16;14.20;1.00
4813;DHT22;2420;51.202;8.698;2023-07-13T04:15:42;14.20;1.00
4813;DHT22;2420;51.202;8.698;2023-07-13T04:18:08;14.20;1.00
4813;DHT22;2420;51.202;8.698;2023-07-13T04:20:34;14.10;1.00
4813;DHT22;2420;51.202;8.698;2023-07-13T04:23:00;14.30;1.00
4813;DHT22;2420;51.202;8.698;2023-07-13T04:25:26;14.30;1.00
4813;DHT22;2420;51.202;8.698;2023-07-13T04:27:53;14.20;1.00
4813;DHT22;2420;51.202;8.698;2023-07-13T04:30:19;14.30;1.00
4813;DHT22;2420;51.202;8.698;2023-07-13T04:32:44;14.30;1.00
4813;DHT22;2420;51.202;8.698;2023-07-13T04:35:10;14.40;1.00
4813;DHT22;2420;51.202;8.698;2023-07-13T04:37:35;14.40;1.00
4813;DHT22;2420;51.202;8.698;2023-07-13T04:40:01;14.50;1.00
4813;DHT22;2420;51.202;8.698;2023-07-13T04:42:27;14.60;1.00
4813;DHT22;2420;51.202;8.698;2023-07-13T04:44:53;14.80;1.00
4813;DHT22;2420;51.202;8.698;2023-07-13T04:47:18;14.90;1.00
4813;DHT22;2420;51.202;8.698;2023-07-13T04:49:44;15.10;1.00
4813;DHT22;2420;51.202;8.698;2023-07-13T04:52:10;15.30;1.00
4813;DHT22;2420;51.202;8.698;2023-07-13T04:54:36;15.30;1.00
4813;DHT22;2420;51.202;8.698;2023-07-13T04:57:03;15.40;1.00
4813;DHT22;2420;51.202;8.698;2023-07-13T04:59:32;15.50;1.00
4813;DHT22;2420;51.202;8.698;2023-07-13T05:01:57;15.50;1.00
4813;DHT22;2420;51.202;8.698;2023-07-13T05:04:23;15.70;1.00
4813;DHT22;2420;51.202;8.698;2023-07-13T05:06:48;15.80;1.00
4813;DHT22;2420;51.202;8.698;2023-07-13T05:09:14;15.80;1.00
4813;DHT22;2420;51.202;8.698;2023-07-13T05:11:39;16.20;1.00
4813;DHT22;2420;51.202;8.698;2023-07-13T05:14:05;16.60;1.00
4813;DHT22;2420;51.202;8.698;2023-07-13T05:16:30;17.00;1.00
4813;DHT22;2420;51.202;8.698;2023-07-13T05:18:57;17.30;1.00
4813;DHT22;2420;51.202;8.698;2023-07-13T05:21:23;17.70;1.00
4813;DHT22;2420;51.202;8.698;2023-07-13T05:23:50;18.00;1.00
4813;DHT22;2420;51.202;8.698;2023-07-13T05:26:15;18.10;1.00
4813;DHT22;2420;51.202;8.698;2023-07-13T05:28:41;18.20;1.00
4813;DHT22;2420;51.202;8.698;2023-07-13T05:31:08;18.40;1.00
4813;DHT22;2420;51.202;8.698;2023-07-13T05:33:34;18.60;1.00
4813;DHT22;2420;51.202;8.698;2023-07-13T05:36:00;18.90;1.00
4813;DHT22;2420;51.202;8.698;2023-07-13T05:38:26;19.20;1.00
4813;DHT22;2420;51.202;8.698;2023-07-13T05:40:53;19.00;1.00
4813;DHT22;2420;51.202;8.698;2023-07-13T05:43:20;18.70;1.00
4813;DHT22;2420;51.202;8.698;2023-07-13T05:45:46;18.60;1.00
4813;DHT22;2420;51.202;8.698;2023-07-13T05:48:11;18.50;1.00
4813;DHT22;2420;51.202;8.698;2023-07-13T05:50:37;18.40;1.00
4813;DHT22;2420;51.202;8.698;2023-07-13T05:53:02;18.30;1.00
4813;DHT22;2420;51.202;8.698;2023-07-13T05:55:28;18.10;1.00
4813;DHT22;2420;51.202;8.698;2023-07-13T05:57:54;18.00;1.00
4813;DHT22;2420;51.202;8.698;2023-07-13T06:00:19;17.80;1.00
4813;DHT22;2420;51.202;8.698;2023-07-13T06:02:45;17.70;1.00
4813;DHT22;2420;51.202;8.698;2023-07-13T06:05:11;17.80;1.00
4813;DHT22;2420;51.202;8.698;2023-07-13T06:07:37;17.60;1.00
4813;DHT22;2420;51.202;8.698;2023-07-13T06:10:03;17.70;1.00
4813;DHT22;2420;51.202;8.698;2023-07-13T06:12:28;17.70;1.00
4813;DHT22;2420;51.202;8.698;2023-07-13T06:14:54;17.70;1.00
4813;DHT22;2420;51.202;8.698;2023-07-13T06:17:19;17.60;1.00
4813;DHT22;2420;51.202;8.698;2023-07-13T06:19:45;17.60;1.00
4813;DHT22;2420;51.202;8.698;2023-07-13T06:22:10;17.60;1.00
4813;DHT22;2420;51.202;8.698;2023-07-13T06:24:38;17.70;1.00
4813;DHT22;2420;51.202;8.698;2023-07-13T06:27:04;17.70;1.00
4813;DHT22;2420;51.202;8.698;2023-07-13T06:29:30;17.90;1.00
4813;DHT22;2420;51.202;8.698;2023-07-13T06:31:56;17.80;1.00
4813;DHT22;2420;51.202;8.698;2023-07-13T06:34:22;17.90;1.00
4813;DHT22;2420;51.202;8.698;2023-07-13T06:36:48;17.90;1.00
4813;DHT22;2420;51.202;8.698;2023-07-13T06:39:14;17.90;1.00
4813;DHT22;2420;51.202;8.698;2023-07-13T06:41:39;18.00;1.00
4813;DHT22;2420;51.202;8.698;2023-07-13T06:44:05;18.10;1.00
4813;DHT22;2420;51.202;8.698;2023-07-13T06:46:31;18.20;1.00
4813;DHT22;2420;51.202;8.698;2023-07-13T06:48:57;18.30;1.00
4813;DHT22;2420;51.202;8.698;2023-07-13T06:51:23;18.40;1.00
4813;DHT22;2420;51.202;8.698;2023-07-13T06:53:48;18.40;1.00
4813;DHT22;2420;51.202;8.698;2023-07-13T06:56:15;18.70;1.00
4813;DHT22;2420;51.202;8.698;2023-07-13T06:58:40;18.80;1.00
4813;DHT22;2420;51.202;8.698;2023-07-13T07:01:06;19.00;1.00
4813;DHT22;2420;51.202;8.698;2023-07-13T07:03:31;19.10;1.00
4813;DHT22;2420;51.202;8.698;2023-07-13T07:06:16;19.20;1.00
4813;DHT22;2420;51.202;8.698;2023-07-13T07:08:42;19.60;1.00
4813;DHT22;2420;51.202;8.698;2023-07-13T07:11:14;19.60;1.00
4813;DHT22;2420;51.202;8.698;2023-07-13T07:13:39;19.70;1.00
4813;DHT22;2420;51.202;8.698;2023-07-13T07:16:05;19.80;1.00
4813;DHT22;2420;51.202;8.698;2023-07-13T07:18:32;19.90;1.00
4813;DHT22;2420;51.202;8.698;2023-07-13T07:20:57;19.80;1.00
4813;DHT22;2420;51.202;8.698;2023-07-13T07:23:23;19.90;1.00
4813;DHT22;2420;51.202;8.698;2023-07-13T07:25:48;19.90;1.00
4813;DHT22;2420;51.202;8.698;2023-07-13T07:28:16;19.90;1.00
4813;DHT22;2420;51.202;8.698;2023-07-13T07:30:44;20.10;1.00
4813;DHT22;2420;51.202;8.698;2023-07-13T07:33:09;20.30;1.00
4813;DHT22;2420;51.202;8.698;2023-07-13T07:35:35;20.30;1.00
4813;DHT22;2420;51.202;8.698;2023-07-13T07:38:00;20.50;1.00
4813;DHT22;2420;51.202;8.698;2023-07-13T07:40:26;20.60;1.00
4813;DHT22;2420;51.202;8.698;2023-07-13T07:42:52;20.60;1.00
4813;DHT22;2420;51.202;8.698;2023-07-13T07:45:18;20.40;1.00
4813;DHT22;2420;51.202;8.698;2023-07-13T07:47:44;20.30;1.00
4813;DHT22;2420;51.202;8.698;2023-07-13T07:50:09;20.20;1.00
4813;DHT22;2420;51.202;8.698;2023-07-13T07:52:35;20.30;1.00
4813;DHT22;2420;51.202;8.698;2023-07-13T07:55:01;20.30;1.00
4813;DHT22;2420;51.202;8.698;2023-07-13T07:57:26;20.40;1.00
4813;DHT22;2420;51.202;8.698;2023-07-13T07:59:52;20.60;1.00
4813;DHT22;2420;51.202;8.698;2023-07-13T08:02:17;20.70;1.00
4813;DHT22;2420;51.202;8.698;2023-07-13T08:04:43;20.80;1.00
4813;DHT22;2420;51.202;8.698;2023-07-13T08:07:09;20.70;1.00
4813;DHT22;2420;51.202;8.698;2023-07-13T08:09:34;20.80;1.00
4813;DHT22;2420;51.202;8.698;2023-07-13T08:12:00;20.90;1.00
4813;DHT22;2420;51.202;8.698;2023-07-13T08:14:26;21.20;1.00
4813;DHT22;2420;51.202;8.698;2023-07-13T08:16:51;21.40;1.00
4813;DHT22;2420;51.202;8.698;2023-07-13T08:19:17;21.60;1.00
4813;DHT22;2420;51.202;8.698;2023-07-13T08:21:42;21.60;1.00
4813;DHT22;2420;51.202;8.698;2023-07-13T08:24:09;21.70;1.00
4813;DHT22;2420;51.202;8.698;2023-07-13T08:26:34;21.50;1.00
4813;DHT22;2420;51.202;8.698;2023-07-13T08:29:00;21.60;1.00
4813;DHT22;2420;51.202;8.698;2023-07-13T08:31:26;21.70;1.00
4813;DHT22;2420;51.202;8.698;2023-07-13T08:33:51;21.70;1.00
4813;DHT22;2420;51.202;8.698;2023-07-13T08:36:18;21.70;1.00
4813;DHT22;2420;51.202;8.698;2023-07-13T08:38:43;21.50;1.00
4813;DHT22;2420;51.202;8.698;2023-07-13T08:41:15;21.60;1.00
4813;DHT22;2420;51.202;8.698;2023-07-13T08:43:42;21.70;1.00
4813;DHT22;2420;51.202;8.698;2023-07-13T08:48:48;22.00;1.00
4813;DHT22;2420;51.202;8.698;2023-07-13T08:54:18;22.30;1.00
4813;DHT22;2420;51.202;8.698;2023-07-13T08:56:46;22.40;1.00
4813;DHT22;2420;51.202;8.698;2023-07-13T08:59:16;22.60;1.00
4813;DHT22;2420;51.202;8.698;2023-07-13T09:02:37;22.70;1.00
4813;DHT22;2420;51.202;8.698;2023-07-13T09:05:02;22.60;1.00
4813;DHT22;2420;51.202;8.698;2023-07-13T09:08:00;22.60;1.00
4813;DHT22;2420;51.202;8.698;2023-07-13T09:10:32;22.60;1.00
4813;DHT22;2420;51.202;8.698;2023-07-13T09:13:39;22.60;1.00
4813;DHT22;2420;51.202;8.698;2023-07-13T09:16:10;22.60;1.00
4813;DHT22;2420;51.202;8.698;2023-07-13T09:18:46;22.50;1.00
4813;DHT22;2420;51.202;8.698;2023-07-13T09:21:17;22.70;1.00
4813;DHT22;2420;51.202;8.698;2023-07-13T09:23:44;23.00;1.00
4813;DHT22;2420;51.202;8.698;2023-07-13T09:26:16;23.20;1.00
4813;DHT22;2420;51.202;8.698;2023-07-13T09:28:45;23.20;1.00
4813;DHT22;2420;51.202;8.698;2023-07-13T09:31:23;23.20;1.00
4813;DHT22;2420;51.202;8.698;2023-07-13T09:33:49;23.20;1.00
4813;DHT22;2420;51.202;8.698;2023-07-13T09:38:47;23.10;1.00
4813;DHT22;2420;51.202;8.698;2023-07-13T09:41:23;23.10;1.00
4813;DHT22;2420;51.202;8.698;2023-07-13T09:46:39;23.00;1.00
4813;DHT22;2420;51.202;8.698;2023-07-13T09:49:04;23.10;1.00
4813;DHT22;2420;51.202;8.698;2023-07-13T09:51:30;23.10;1.00
4813;DHT22;2420;51.202;8.698;2023-07-13T09:53:56;23.20;1.00
4813;DHT22;2420;51.202;8.698;2023-07-13T09:56:24;23.40;1.00
4813;DHT22;2420;51.202;8.698;2023-07-13T09:58:51;23.50;1.00
4813;DHT22;2420;51.202;8.698;2023-07-13T10:01:32;23.70;1.00
4813;DHT22;2420;51.202;8.698;2023-07-13T10:03:59;24.10;1.00
4813;DHT22;2420;51.202;8.698;2023-07-13T10:06:24;23.90;1.00
4813;DHT22;2420;51.202;8.698;2023-07-13T10:08:52;23.60;1.00
4813;DHT22;2420;51.202;8.698;2023-07-13T10:11:20;23.70;1.00
4813;DHT22;2420;51.202;8.698;2023-07-13T10:13:52;24.00;1.00
4813;DHT22;2420;51.202;8.698;2023-07-13T10:16:21;24.00;1.00
4813;DHT22;2420;51.202;8.698;2023-07-13T10:18:55;23.70;1.00
4813;DHT22;2420;51.202;8.698;2023-07-13T10:21:26;23.90;1.00
4813;DHT22;2420;51.202;8.698;2023-07-13T10:23:56;24.00;1.00
4813;DHT22;2420;51.202;8.698;2023-07-13T10:26:30;23.80;1.00
4813;DHT22;2420;51.202;8.698;2023-07-13T10:29:00;23.60;1.00
4813;DHT22;2420;51.202;8.698;2023-07-13T10:31:30;23.60;1.00
4813;DHT22;2420;51.202;8.698;2023-07-13T10:33:56;24.10;1.00
4813;DHT22;2420;51.202;8.698;2023-07-13T10:36:31;24.50;1.00
4813;DHT22;2420;51.202;8.698;2023-07-13T10:39:00;24.50;1.00
4813;DHT22;2420;51.202;8.698;2023-07-13T10:41:29;24.60;1.00
4813;DHT22;2420;51.202;8.698;2023-07-13T10:43:56;24.70;1.00
4813;DHT22;2420;51.202;8.698;2023-07-13T10:46:27;24.80;1.00
4813;DHT22;2420;51.202;8.698;2023-07-13T10:49:05;24.50;1.00
4813;DHT22;2420;51.202;8.698;2023-07-13T10:51:32;24.20;1.00
4813;DHT22;2420;51.202;8.698;2023-07-13T10:56:45;23.90;1.00
4813;DHT22;2420;51.202;8.698;2023-07-13T10:59:15;23.90;1.00
4813;DHT22;2420;51.202;8.698;2023-07-13T11:01:58;23.70;1.00
4813;DHT22;2420;51.202;8.698;2023-07-13T11:04:26;23.40;1.00
4813;DHT22;2420;51.202;8.698;2023-07-13T11:06:57;23.10;1.00
4813;DHT22;2420;51.202;8.698;2023-07-13T11:12:07;22.60;1.00
4813;DHT22;2420;51.202;8.698;2023-07-13T11:14:42;22.50;1.00
4813;DHT22;2420;51.202;8.698;2023-07-13T11:20:20;22.40;1.00
4813;DHT22;2420;51.202;8.698;2023-07-13T11:22:47;22.40;1.00
4813;DHT22;2420;51.202;8.698;2023-07-13T11:25:26;22.30;1.00
4813;DHT22;2420;51.202;8.698;2023-07-13T11:35:46;21.70;1.00
4813;DHT22;2420;51.202;8.698;2023-07-13T11:38:23;21.60;1.00
4813;DHT22;2420;51.202;8.698;2023-07-13T11:40:54;21.70;1.00
4813;DHT22;2420;51.202;8.698;2023-07-13T11:43:20;22.00;1.00
4813;DHT22;2420;51.202;8.698;2023-07-13T11:45:49;22.50;1.00
4813;DHT22;2420;51.202;8.698;2023-07-13T11:48:29;22.90;1.00
4813;DHT22;2420;51.202;8.698;2023-07-13T11:51:03;22.70;1.00
4813;DHT22;2420;51.202;8.698;2023-07-13T11:53:45;22.70;1.00
4813;DHT22;2420;51.202;8.698;2023-07-13T11:56:11;22.70;1.00
4813;DHT22;2420;51.202;8.698;2023-07-13T11:58:38;22.80;1.00
4813;DHT22;2420;51.202;8.698;2023-07-13T12:01:04;22.80;1.00
4813;DHT22;2420;51.202;8.698;2023-07-13T12:03:32;23.10;1.00
4813;DHT22;2420;51.202;8.698;2023-07-13T12:06:02;23.40;1.00
4813;DHT22;2420;51.202;8.698;2023-07-13T12:08:29;23.40;1.00
4813;DHT22;2420;51.202;8.698;2023-07-13T12:11:00;23.50;1.00
4813;DHT22;2420;51.202;8.698;2023-07-13T12:13:35;23.60;1.00
4813;DHT22;2420;51.202;8.698;2023-07-13T12:16:01;23.70;1.00
4813;DHT22;2420;51.202;8.698;2023-07-13T12:18:31;23.70;1.00
4813;DHT22;2420;51.202;8.698;2023-07-13T12:20:59;23.60;1.00
4813;DHT22;2420;51.202;8.698;2023-07-13T12:23:33;23.60;1.00
4813;DHT22;2420;51.202;8.698;2023-07-13T12:26:02;23.50;1.00
4813;DHT22;2420;51.202;8.698;2023-07-13T12:28:37;23.40;1.00
4813;DHT22;2420;51.202;8.698;2023-07-13T12:33:48;23.30;1.00
4813;DHT22;2420;51.202;8.698;2023-07-13T12:36:21;23.20;1.00
4813;DHT22;2420;51.202;8.698;2023-07-13T12:38:47;23.10;1.00
4813;DHT22;2420;51.202;8.698;2023-07-13T12:41:12;23.50;1.00
4813;DHT22;2420;51.202;8.698;2023-07-13T12:43:40;23.30;1.00
4813;DHT22;2420;51.202;8.698;2023-07-13T12:46:17;22.90;1.00
4813;DHT22;2420;51.202;8.698;2023-07-13T12:48:44;23.10;1.00
4813;DHT22;2420;51.202;8.698;2023-07-13T12:51:14;23.00;1.00
4813;DHT22;2420;51.202;8.698;2023-07-13T12:53:48;23.30;1.00
4813;DHT22;2420;51.202;8.698;2023-07-13T12:56:22;23.50;1.00
4813;DHT22;2420;51.202;8.698;2023-07-13T12:58:48;23.60;1.00
4813;DHT22;2420;51.202;8.698;2023-07-13T13:01:21;23.60;1.00
4813;DHT22;2420;51.202;8.698;2023-07-13T13:03:49;23.50;1.00
4813;DHT22;2420;51.202;8.698;2023-07-13T13:08:55;24.10;1.00
4813;DHT22;2420;51.202;8.698;2023-07-13T13:11:23;24.40;1.00
4813;DHT22;2420;51.202;8.698;2023-07-13T13:13:50;24.60;1.00
4813;DHT22;2420;51.202;8.698;2023-07-13T13:16:37;24.70;1.00
4813;DHT22;2420;51.202;8.698;2023-07-13T13:19:24;24.90;1.00
4813;DHT22;2420;51.202;8.698;2023-07-13T13:21:52;24.90;1.00
4813;DHT22;2420;51.202;8.698;2023-07-13T13:24:21;25.00;1.00
4813;DHT22;2420;51.202;8.698;2023-07-13T13:26:47;24.90;1.00
4813;DHT22;2420;51.202;8.698;2023-07-13T13:29:18;24.80;1.00
4813;DHT22;2420;51.202;8.698;2023-07-13T13:31:45;24.40;1.00
4813;DHT22;2420;51.202;8.698;2023-07-13T13:34:12;24.10;1.00
4813;DHT22;2420;51.202;8.698;2023-07-13T13:36:40;23.90;1.00
4813;DHT22;2420;51.202;8.698;2023-07-13T13:39:31;23.80;1.00
4813;DHT22;2420;51.202;8.698;2023-07-13T13:41:58;24.10;1.00
4813;DHT22;2420;51.202;8.698;2023-07-13T13:44:23;24.60;1.00
4813;DHT22;2420;51.202;8.698;2023-07-13T13:46:52;24.70;1.00
4813;DHT22;2420;51.202;8.698;2023-07-13T13:49:21;24.60;1.00
4813;DHT22;2420;51.202;8.698;2023-07-13T13:51:47;24.20;1.00
4813;DHT22;2420;51.202;8.698;2023-07-13T13:54:14;24.00;1.00
4813;DHT22;2420;51.202;8.698;2023-07-13T13:56:47;24.00;1.00
4813;DHT22;2420;51.202;8.698;2023-07-13T13:59:13;23.90;1.00
4813;DHT22;2420;51.202;8.698;2023-07-13T14:01:41;23.70;1.00
4813;DHT22;2420;51.202;8.698;2023-07-13T14:04:21;23.70;1.00
4813;DHT22;2420;51.202;8.698;2023-07-13T14:06:47;23.80;1.00
4813;DHT22;2420;51.202;8.698;2023-07-13T14:09:16;23.70;1.00
4813;DHT22;2420;51.202;8.698;2023-07-13T14:11:42;23.60;1.00
4813;DHT22;2420;51.202;8.698;2023-07-13T14:14:14;23.60;1.00
4813;DHT22;2420;51.202;8.698;2023-07-13T14:16:41;23.70;1.00
4813;DHT22;2420;51.202;8.698;2023-07-13T14:19:11;23.70;1.00
4813;DHT22;2420;51.202;8.698;2023-07-13T14:21:37;23.60;1.00
4813;DHT22;2420;51.202;8.698;2023-07-13T14:24:02;23.60;1.00
4813;DHT22;2420;51.202;8.698;2023-07-13T14:26:30;23.60;1.00
4813;DHT22;2420;51.202;8.698;2023-07-13T14:28:57;23.50;1.00
4813;DHT22;2420;51.202;8.698;2023-07-13T14:31:25;23.70;1.00
4813;DHT22;2420;51.202;8.698;2023-07-13T14:33:51;23.80;1.00
4813;DHT22;2420;51.202;8.698;2023-07-13T14:36:39;24.10;1.00
4813;DHT22;2420;51.202;8.698;2023-07-13T14:39:25;24.10;1.00
4813;DHT22;2420;51.202;8.698;2023-07-13T14:41:53;23.90;1.00
4813;DHT22;2420;51.202;8.698;2023-07-13T14:44:23;23.60;1.00
4813;DHT22;2420;51.202;8.698;2023-07-13T14:46:49;23.70;1.00
4813;DHT22;2420;51.202;8.698;2023-07-13T14:49:29;23.60;1.00
4813;DHT22;2420;51.202;8.698;2023-07-13T14:51:58;23.60;1.00
4813;DHT22;2420;51.202;8.698;2023-07-13T14:54:24;23.50;1.00
4813;DHT22;2420;51.202;8.698;2023-07-13T14:56:50;23.60;1.00
4813;DHT22;2420;51.202;8.698;2023-07-13T14:59:16;23.60;1.00
4813;DHT22;2420;51.202;8.698;2023-07-13T15:01:44;23.50;1.00
4813;DHT22;2420;51.202;8.698;2023-07-13T15:04:11;23.60;1.00
4813;DHT22;2420;51.202;8.698;2023-07-13T15:06:58;23.50;1.00
4813;DHT22;2420;51.202;8.698;2023-07-13T15:09:26;23.60;1.00
4813;DHT22;2420;51.202;8.698;2023-07-13T15:11:55;23.60;1.00
4813;DHT22;2420;51.202;8.698;2023-07-13T15:14:21;23.60;1.00
4813;DHT22;2420;51.202;8.698;2023-07-13T15:16:49;23.60;1.00
4813;DHT22;2420;51.202;8.698;2023-07-13T15:19:17;23.60;1.00
4813;DHT22;2420;51.202;8.698;2023-07-13T15:21:43;23.60;1.00
4813;DHT22;2420;51.202;8.698;2023-07-13T15:24:10;23.50;1.00
4813;DHT22;2420;51.202;8.698;2023-07-13T15:26:36;23.50;1.00
4813;DHT22;2420;51.202;8.698;2023-07-13T15:29:05;23.60;1.00
4813;DHT22;2420;51.202;8.698;2023-07-13T15:31:33;23.60;1.00
4813;DHT22;2420;51.202;8.698;2023-07-13T15:34:00;23.50;1.00
4813;DHT22;2420;51.202;8.698;2023-07-13T15:36:28;23.60;1.00
4813;DHT22;2420;51.202;8.698;2023-07-13T15:38:55;23.60;1.00
4813;DHT22;2420;51.202;8.698;2023-07-13T15:41:26;23.70;1.00
4813;DHT22;2420;51.202;8.698;2023-07-13T15:43:54;23.70;1.00
4813;DHT22;2420;51.202;8.698;2023-07-13T15:46:20;23.60;1.00
4813;DHT22;2420;51.202;8.698;2023-07-13T15:48:47;23.60;1.00
4813;DHT22;2420;51.202;8.698;2023-07-13T15:51:24;23.60;1.00
4813;DHT22;2420;51.202;8.698;2023-07-13T15:53:52;23.60;1.00
4813;DHT22;2420;51.202;8.698;2023-07-13T15:56:23;23.50;1.00
4813;DHT22;2420;51.202;8.698;2023-07-13T15:58:51;23.40;1.00
4813;DHT22;2420;51.202;8.698;2023-07-13T16:01:17;23.20;1.00
4813;DHT22;2420;51.202;8.698;2023-07-13T16:03:45;23.20;1.00
4813;DHT22;2420;51.202;8.698;2023-07-13T16:06:16;23.20;1.00
4813;DHT22;2420;51.202;8.698;2023-07-13T16:08:43;23.20;1.00
4813;DHT22;2420;51.202;8.698;2023-07-13T16:11:22;23.20;1.00
4813;DHT22;2420;51.202;8.698;2023-07-13T16:13:48;23.30;1.00
4813;DHT22;2420;51.202;8.698;2023-07-13T16:16:19;23.30;1.00
4813;DHT22;2420;51.202;8.698;2023-07-13T16:18:44;23.20;1.00
4813;DHT22;2420;51.202;8.698;2023-07-13T16:21:12;23.20;1.00
4813;DHT22;2420;51.202;8.698;2023-07-13T16:23:38;23.20;1.00
4813;DHT22;2420;51.202;8.698;2023-07-13T16:26:24;23.10;1.00
4813;DHT22;2420;51.202;8.698;2023-07-13T16:28:50;23.10;1.00
4813;DHT22;2420;51.202;8.698;2023-07-13T16:31:31;23.00;1.00
4813;DHT22;2420;51.202;8.698;2023-07-13T16:33:58;22.90;1.00
4813;DHT22;2420;51.202;8.698;2023-07-13T16:36:27;22.80;1.00
4813;DHT22;2420;51.202;8.698;2023-07-13T16:38:54;22.80;1.00
4813;DHT22;2420;51.202;8.698;2023-07-13T16:41:20;22.60;1.00
4813;DHT22;2420;51.202;8.698;2023-07-13T16:43:46;22.50;1.00
4813;DHT22;2420;51.202;8.698;2023-07-13T16:46:12;22.40;1.00
4813;DHT22;2420;51.202;8.698;2023-07-13T16:48:41;22.40;1.00
4813;DHT22;2420;51.202;8.698;2023-07-13T16:51:06;22.20;1.00
4813;DHT22;2420;51.202;8.698;2023-07-13T16:53:32;22.10;1.00
4813;DHT22;2420;51.202;8.698;2023-07-13T16:55:59;21.80;1.00
4813;DHT22;2420;51.202;8.698;2023-07-13T16:58:28;21.50;1.00